Time;durP1;ratioP1;P1;durP2;ratioP2;P2;SDS_P1;SDS_P2;PMS_P1;PMS_P2;Temp;Humidity;BMP_temperature;BMP_pressure;BME280_temperature;BME280_humidity;BME280_pressure;Samples;Min_cycle;Max_cycle;Signal;HPM_P1;HPM_P2
2022/12/03 00:01:58;;;;;;;;;;;;;;;38.81;nan;101809.56;5063578;28;20567;-60
2022/12/03 00:04:24;;;;;;;;;;;;;;;39.36;nan;101811.78;5038153;28;19928;-60
2022/12/03 00:06:50;;;;;;;;;;;;;;;38.68;nan;101810.19;5055257;28;20007;-58
2022/12/03 00:09:16;;;;;;;;;;;;;;;37.60;nan;101811.38;5060010;28;19916;-59
2022/12/03 00:11:42;;;;;;;;;;;;;;;38.92;nan;101810.16;5054419;28;20298;-59
2022/12/03 00:14:09;;;;;;;;;;;;;;;39.95;nan;101825.13;5057653;28;20290;-60
2022/12/03 00:16:35;;;;;;;;;;;;;;;40.40;nan;101818.84;5058102;28;20490;-59
2022/12/03 00:19:03;;;;;;;;;;;;;;;40.63;nan;101807.22;5065999;28;19924;-59
2022/12/03 00:21:29;;;;;;;;;;;;;;;40.82;nan;101805.53;5052318;28;20004;-60
2022/12/03 00:23:55;;;;;;;;;;;;;;;39.47;nan;101815.16;5052553;28;19920;-59
2022/12/03 00:26:21;;;;;;;;;;;;;;;38.51;nan;101813.31;5051015;28;20294;-60
2022/12/03 00:28:48;;;;;;;;;;;;;;;38.29;nan;101812.88;5052029;28;20023;-60
2022/12/03 00:31:14;;;;;;;;;;;;;;;38.42;nan;101810.22;5052426;28;19927;-59
2022/12/03 00:33:40;;;;;;;;;;;;;;;38.88;nan;101806.59;5052047;28;19920;-59
2022/12/03 00:36:07;;;;;;;;;;;;;;;39.55;nan;101804.50;5053649;28;20352;-59
2022/12/03 00:38:33;;;;;;;;;;;;;;;39.81;nan;101808.38;5055015;28;20031;-60
2022/12/03 00:40:59;;;;;;;;;;;;;;;39.90;nan;101814.28;5055306;28;20280;-58
2022/12/03 00:43:26;;;;;;;;;;;;;;;39.85;nan;101809.88;5047088;28;19928;-59
2022/12/03 00:45:52;;;;;;;;;;;;;;;38.58;nan;101811.13;5053317;28;19925;-59
2022/12/03 00:48:18;;;;;;;;;;;;;;;38.24;nan;101821.84;5072834;28;20303;-58
2022/12/03 00:50:44;;;;;;;;;;;;;;;38.87;nan;101824.88;5046149;28;19946;-58
2022/12/03 00:53:10;;;;;;;;;;;;;;;39.01;nan;101827.47;5067250;28;19920;-59
2022/12/03 00:55:37;;;;;;;;;;;;;;;39.34;nan;101828.47;5085175;28;19927;-60
2022/12/03 00:58:03;;;;;;;;;;;;;;;39.37;nan;101833.28;5089425;28;20018;-60
2022/12/03 01:00:29;;;;;;;;;;;;;;;39.14;nan;101827.63;5092205;28;19995;-59
2022/12/03 01:02:55;;;;;;;;;;;;;;;38.94;nan;101830.44;5078932;28;19916;-60
2022/12/03 01:05:22;;;;;;;;;;;;;;;38.89;nan;101837.41;5084478;28;19927;-59
2022/12/03 01:07:48;;;;;;;;;;;;;;;38.93;nan;101838.16;5090421;28;19916;-59
2022/12/03 01:10:14;;;;;;;;;;;;;;;38.98;nan;101839.72;5077953;28;19921;-58
2022/12/03 01:12:41;;;;;;;;;;;;;;;38.88;nan;101844.34;5075934;28;19924;-59
2022/12/03 01:15:07;;;;;;;;;;;;;;;38.88;nan;101835.81;5074662;28;20436;-59
2022/12/03 01:17:34;;;;;;;;;;;;;;;38.86;nan;101843.19;5074797;28;20393;-59
2022/12/03 01:20:00;;;;;;;;;;;;;;;38.81;nan;101846.53;5076767;28;19925;-59
2022/12/03 01:22:26;;;;;;;;;;;;;;;38.77;nan;101842.91;5075281;28;19927;-59
2022/12/03 01:24:53;;;;;;;;;;;;;;;38.66;nan;101846.78;5074535;28;20410;-60
2022/12/03 01:27:19;;;;;;;;;;;;;;;38.72;nan;101844.22;5077003;28;19963;-59
2022/12/03 01:29:45;;;;;;;;;;;;;;;38.63;nan;101849.66;5075590;28;19943;-58
2022/12/03 01:32:21;;;;;;;;;;;;;;;38.49;nan;101850.69;5073605;28;20023;-59
2022/12/03 01:34:53;;;;;;;;;;;;;;;38.37;nan;101849.25;5078503;28;20297;-59
2022/12/03 01:37:21;;;;;;;;;;;;;;;38.25;nan;101852.69;5076539;28;20409;-59
2022/12/03 01:39:48;;;;;;;;;;;;;;;38.18;nan;101844.25;5075143;28;19921;-58
2022/12/03 01:42:16;;;;;;;;;;;;;;;37.97;nan;101845.34;5074626;28;19921;-58
2022/12/03 01:44:43;;;;;;;;;;;;;;;37.93;nan;101849.47;5076171;28;19938;-58
2022/12/03 01:47:13;;;;;;;;;;;;;;;38.03;nan;101857.84;5080551;28;19935;-57
2022/12/03 01:49:42;;;;;;;;;;;;;;;37.84;nan;101861.34;5067097;28;19920;-56
2022/12/03 01:52:12;;;;;;;;;;;;;;;38.00;nan;101858.69;5060315;28;19925;-56
2022/12/03 01:54:41;;;;;;;;;;;;;;;37.95;nan;101856.34;5060067;28;19924;-58
2022/12/03 01:57:19;;;;;;;;;;;;;;;37.95;nan;101850.66;5061915;28;20377;-58
2022/12/03 01:59:46;;;;;;;;;;;;;;;37.87;nan;101849.13;5060341;28;20436;-57
2022/12/03 02:02:22;;;;;;;;;;;;;;;37.72;nan;101859.91;5058454;28;19921;-58
2022/12/03 02:04:51;;;;;;;;;;;;;;;37.59;nan;101861.66;5058268;28;19921;-59
2022/12/03 02:07:25;;;;;;;;;;;;;;;37.45;nan;101858.97;5064538;28;19921;-58
2022/12/03 02:09:52;;;;;;;;;;;;;;;37.54;nan;101864.97;5055503;28;19927;-58
2022/12/03 02:12:20;;;;;;;;;;;;;;;37.59;nan;101867.31;5058464;28;19927;-59
2022/12/03 02:14:46;;;;;;;;;;;;;;;37.66;nan;101878.56;5064704;28;20015;-58
2022/12/03 02:17:12;;;;;;;;;;;;;;;37.65;nan;101879.00;5063892;28;19916;-58
2022/12/03 02:19:39;;;;;;;;;;;;;;;37.58;nan;101877.06;5068956;28;20390;-58
2022/12/03 02:22:08;;;;;;;;;;;;;;;37.38;nan;101873.25;5064536;28;19926;-58
2022/12/03 02:24:34;;;;;;;;;;;;;;;37.26;nan;101877.41;5061362;28;19921;-58
2022/12/03 02:27:00;;;;;;;;;;;;;;;37.36;nan;101882.19;5070016;28;19924;-58
2022/12/03 02:29:28;;;;;;;;;;;;;;;37.32;nan;101875.72;5062496;28;19960;-59
2022/12/03 02:31:54;;;;;;;;;;;;;;;37.35;nan;101882.59;5057045;28;19927;-58
2022/12/03 02:34:32;;;;;;;;;;;;;;;37.36;nan;101887.06;5056867;28;19931;-57
2022/12/03 02:36:59;;;;;;;;;;;;;;;37.32;nan;101881.41;5057677;28;19921;-59
2022/12/03 02:39:26;;;;;;;;;;;;;;;37.26;nan;101887.94;5059529;28;19924;-59
2022/12/03 02:44:37;;;;;;;;;;;;;;;37.17;nan;101891.28;5058657;28;19990;-58
2022/12/03 02:47:03;;;;;;;;;;;;;;;37.20;nan;101882.72;5058446;28;19963;-59
2022/12/03 02:49:29;;;;;;;;;;;;;;;37.11;nan;101895.75;5069693;28;19947;-58
2022/12/03 02:51:55;;;;;;;;;;;;;;;37.10;nan;101889.28;5069611;28;19916;-59
2022/12/03 02:54:22;;;;;;;;;;;;;;;37.03;nan;101897.06;5052474;28;19982;-58
2022/12/03 02:56:48;;;;;;;;;;;;;;;37.46;nan;101892.59;5059379;28;20283;-57
2022/12/03 02:59:15;;;;;;;;;;;;;;;37.96;nan;101891.19;5071618;28;19974;-57
2022/12/03 03:01:41;;;;;;;;;;;;;;;38.01;nan;101883.00;5082248;28;19947;-57
2022/12/03 03:04:07;;;;;;;;;;;;;;;38.34;nan;101883.38;5093677;28;19920;-59
2022/12/03 03:06:34;;;;;;;;;;;;;;;38.49;nan;101889.66;5068425;28;19924;-57
2022/12/03 03:09:01;;;;;;;;;;;;;;;38.56;nan;101901.69;5074251;28;19924;-60
2022/12/03 03:11:28;;;;;;;;;;;;;;;38.50;nan;101894.91;5074250;28;19916;-59
2022/12/03 03:13:54;;;;;;;;;;;;;;;38.26;nan;101901.78;5072305;28;20366;-60
2022/12/03 03:16:20;;;;;;;;;;;;;;;38.09;nan;101900.75;5072883;28;20413;-60
2022/12/03 03:18:47;;;;;;;;;;;;;;;37.93;nan;101898.53;5073245;28;20007;-60
2022/12/03 03:21:14;;;;;;;;;;;;;;;37.83;nan;101898.66;5072958;28;19926;-60
2022/12/03 03:23:40;;;;;;;;;;;;;;;37.88;nan;101912.38;5072880;28;20383;-59
2022/12/03 03:26:10;;;;;;;;;;;;;;;36.82;nan;101915.88;5072647;28;19999;-61
2022/12/03 03:28:38;;;;;;;;;;;;;;;36.34;nan;101924.28;5073049;28;20007;-61
2022/12/03 03:31:06;;;;;;;;;;;;;;;35.87;nan;101925.69;5076172;28;20042;-61
2022/12/03 03:33:33;;;;;;;;;;;;;;;35.61;nan;101919.28;5074113;28;19924;-62
2022/12/03 03:36:00;;;;;;;;;;;;;;;36.47;nan;101910.44;5071176;28;20015;-61
2022/12/03 03:38:27;;;;;;;;;;;;;;;36.76;nan;101906.16;5074350;28;19928;-62
2022/12/03 03:40:53;;;;;;;;;;;;;;;36.89;nan;101910.13;5076258;28;19963;-61
2022/12/03 03:43:21;;;;;;;;;;;;;;;35.87;nan;101918.00;5076104;28;19967;-62
2022/12/03 03:45:48;;;;;;;;;;;;;;;35.37;nan;101922.94;5074662;28;19916;-61
2022/12/03 03:48:16;;;;;;;;;;;;;;;34.86;nan;101924.19;5073485;28;19974;-60
2022/12/03 03:50:43;;;;;;;;;;;;;;;35.28;nan;101926.19;5074273;28;19935;-60
2022/12/03 03:53:11;;;;;;;;;;;;;;;35.42;nan;101931.84;5074604;28;20320;-60
2022/12/03 03:55:38;;;;;;;;;;;;;;;35.52;nan;101937.88;5074380;28;19989;-61
2022/12/03 03:58:04;;;;;;;;;;;;;;;35.01;nan;101933.47;5079382;28;19989;-61
2022/12/03 04:00:31;;;;;;;;;;;;;;;35.06;nan;101931.06;5074046;28;20008;-61
2022/12/03 04:02:57;;;;;;;;;;;;;;;35.40;nan;101931.44;5075328;28;19925;-62
2022/12/03 04:05:23;;;;;;;;;;;;;;;35.90;nan;101933.34;5073125;28;20263;-61
2022/12/03 04:07:50;;;;;;;;;;;;;;;36.35;nan;101934.38;5072382;28;19970;-61
2022/12/03 04:13:01;;;;;;;;;;;;;;;36.22;nan;101931.19;5078533;28;19978;-61
2022/12/03 04:15:27;;;;;;;;;;;;;;;35.10;nan;101923.38;5077558;28;19916;-61
2022/12/03 04:20:40;;;;;;;;;;;;;;;33.99;nan;101923.53;5073322;28;19921;-61
2022/12/03 04:23:06;;;;;;;;;;;;;;;33.64;nan;101930.59;5073889;28;19940;-59
2022/12/03 04:35:41;;;;;;;;;;;;;;;33.52;nan;101933.72;5073430;28;20410;-62
2022/12/03 04:36:34;;;;;;;;;;;;;;;34.03;nan;101942.09;5074883;28;19960;-61
2022/12/03 04:39:00;;;;;;;;;;;;;;;34.02;nan;101940.47;5070017;28;19920;-61
2022/12/03 04:41:27;;;;;;;;;;;;;;;34.68;nan;101938.28;5072030;28;19924;-62
2022/12/03 04:46:38;;;;;;;;;;;;;;;35.88;nan;101938.59;5072606;28;20003;-63
2022/12/03 04:49:04;;;;;;;;;;;;;;;36.02;nan;101944.22;5076630;28;20389;-63
2022/12/03 04:51:30;;;;;;;;;;;;;;;36.11;nan;101944.59;5074096;28;19949;-61
2022/12/03 04:53:57;;;;;;;;;;;;;;;36.02;nan;101950.69;5074136;28;20383;-61
2022/12/03 04:56:23;;;;;;;;;;;;;;;35.98;nan;101943.44;5074316;28;19927;-63
2022/12/03 04:58:49;;;;;;;;;;;;;;;36.06;nan;101942.16;5075866;28;20047;-61
2022/12/03 05:01:15;;;;;;;;;;;;;;;36.09;nan;101957.50;5071332;28;20371;-60
2022/12/03 05:03:42;;;;;;;;;;;;;;;35.90;nan;101955.97;5074163;28;20494;-62
2022/12/03 05:06:08;;;;;;;;;;;;;;;35.90;nan;101956.78;5073699;28;20522;-62
2022/12/03 05:08:34;;;;;;;;;;;;;;;36.03;nan;101954.31;5071704;28;19960;-61
2022/12/03 05:11:00;;;;;;;;;;;;;;;36.08;nan;101956.72;5074560;28;20120;-61
2022/12/03 05:13:27;;;;;;;;;;;;;;;35.77;nan;101957.63;5073944;28;19927;-61
2022/12/03 05:15:53;;;;;;;;;;;;;;;35.35;nan;101960.13;5071225;28;19928;-62
2022/12/03 05:18:19;;;;;;;;;;;;;;;35.45;nan;101964.16;5073308;28;19925;-62
2022/12/03 05:20:45;;;;;;;;;;;;;;;35.62;nan;101962.50;5073540;28;19920;-62
2022/12/03 05:23:14;;;;;;;;;;;;;;;35.83;nan;101965.28;5071732;28;19924;-61
2022/12/03 05:25:40;;;;;;;;;;;;;;;35.29;nan;101952.44;5073577;28;19924;-60
2022/12/03 05:28:06;;;;;;;;;;;;;;;35.43;nan;101963.75;5072721;28;19923;-61
2022/12/03 05:30:33;;;;;;;;;;;;;;;35.59;nan;101963.34;5074208;28;19924;-62
2022/12/03 05:32:59;;;;;;;;;;;;;;;35.42;nan;101965.78;5073049;28;19952;-63
2022/12/03 05:35:26;;;;;;;;;;;;;;;35.16;nan;101968.19;5074236;28;20391;-61
2022/12/03 05:37:52;;;;;;;;;;;;;;;35.16;nan;101971.00;5074026;28;19924;-61
2022/12/03 05:40:19;;;;;;;;;;;;;;;34.90;nan;101970.19;5073346;28;20006;-61
2022/12/03 05:42:55;;;;;;;;;;;;;;;35.14;nan;101972.22;5072704;28;19948;-58
2022/12/03 05:45:28;;;;;;;;;;;;;;;35.31;nan;101961.31;5073576;28;20278;-61
2022/12/03 05:47:55;;;;;;;;;;;;;;;35.32;nan;101965.75;5072901;28;19921;-61
2022/12/03 05:50:23;;;;;;;;;;;;;;;35.37;nan;101965.38;5071155;28;20022;-61
2022/12/03 05:52:49;;;;;;;;;;;;;;;35.04;nan;101969.41;5073751;28;19924;-62
2022/12/03 05:55:16;;;;;;;;;;;;;;;35.24;nan;101969.81;5073154;28;19928;-63
2022/12/03 05:57:42;;;;;;;;;;;;;;;35.31;nan;101976.25;5073013;28;19944;-61
2022/12/03 06:00:12;;;;;;;;;;;;;;;35.46;nan;101974.25;5072764;28;19920;-61
2022/12/03 06:02:41;;;;;;;;;;;;;;;35.11;nan;101984.34;5073647;28;19951;-62
2022/12/03 06:05:08;;;;;;;;;;;;;;;35.23;nan;101982.31;5073173;28;19924;-62
2022/12/03 06:07:35;;;;;;;;;;;;;;;35.36;nan;101983.53;5073693;28;19923;-61
2022/12/03 06:10:01;;;;;;;;;;;;;;;35.27;nan;101988.78;5071138;28;20011;-61
2022/12/03 06:12:27;;;;;;;;;;;;;;;35.23;nan;101988.78;5072651;28;19920;-62
2022/12/03 06:14:54;;;;;;;;;;;;;;;35.25;nan;101997.66;5075645;28;19968;-62
2022/12/03 06:17:20;;;;;;;;;;;;;;;35.14;nan;101996.84;5075890;28;19962;-62
2022/12/03 06:19:46;;;;;;;;;;;;;;;35.31;nan;101989.56;5075518;28;19921;-61
2022/12/03 06:22:13;;;;;;;;;;;;;;;35.40;nan;101990.81;5075746;28;19916;-62
2022/12/03 06:24:39;;;;;;;;;;;;;;;35.26;nan;101987.97;5077507;28;19977;-62
2022/12/03 06:27:05;;;;;;;;;;;;;;;35.05;nan;101983.13;5075577;28;19943;-62
2022/12/03 06:29:31;;;;;;;;;;;;;;;35.14;nan;101982.72;5075083;28;19967;-61
2022/12/03 06:31:58;;;;;;;;;;;;;;;35.24;nan;101979.09;5073339;28;20022;-61
2022/12/03 06:34:24;;;;;;;;;;;;;;;35.13;nan;101987.56;5074879;28;19920;-62
2022/12/03 06:36:50;;;;;;;;;;;;;;;35.14;nan;101982.72;5075425;28;20378;-62
2022/12/03 06:39:17;;;;;;;;;;;;;;;35.10;nan;101977.06;5072643;28;19931;-61
2022/12/03 06:41:43;;;;;;;;;;;;;;;34.99;nan;101966.97;5074933;28;20370;-61
2022/12/03 06:44:09;;;;;;;;;;;;;;;34.96;nan;101959.31;5074356;28;19928;-61
2022/12/03 06:46:37;;;;;;;;;;;;;;;34.86;nan;101960.91;5073986;28;19938;-60
2022/12/03 06:49:03;;;;;;;;;;;;;;;34.88;nan;101961.31;5073446;28;20373;-61
2022/12/03 06:51:29;;;;;;;;;;;;;;;34.79;nan;101972.16;5073986;28;19962;-61
2022/12/03 06:53:56;;;;;;;;;;;;;;;34.94;nan;101962.53;5072662;28;19920;-60
2022/12/03 06:56:22;;;;;;;;;;;;;;;34.66;nan;101962.47;5074165;28;19921;-64
2022/12/03 06:58:48;;;;;;;;;;;;;;;34.50;nan;101968.50;5073315;28;20385;-64
2022/12/03 07:01:14;;;;;;;;;;;;;;;34.59;nan;101962.44;5071642;28;20401;-65
2022/12/03 07:03:41;;;;;;;;;;;;;;;34.77;nan;101960.47;5072080;28;19916;-62
2022/12/03 07:06:07;;;;;;;;;;;;;;;34.86;nan;101960.13;5070740;28;19990;-64
2022/12/03 07:08:34;;;;;;;;;;;;;;;34.68;nan;101955.22;5072261;28;19988;-62
2022/12/03 07:11:00;;;;;;;;;;;;;;;34.78;nan;101954.41;5070283;28;20006;-62
2022/12/03 07:13:27;;;;;;;;;;;;;;;34.44;nan;101953.94;5070905;28;20024;-61
2022/12/03 07:15:53;;;;;;;;;;;;;;;34.06;nan;101951.75;5072033;28;19990;-62
2022/12/03 07:18:20;;;;;;;;;;;;;;;34.30;nan;101950.25;5070683;28;19916;-61
2022/12/03 07:20:46;;;;;;;;;;;;;;;34.30;nan;101956.72;5074539;28;19920;-62
2022/12/03 07:23:12;;;;;;;;;;;;;;;34.47;nan;101955.97;5073098;28;20370;-60
2022/12/03 07:25:38;;;;;;;;;;;;;;;34.59;nan;101959.63;5066120;28;19920;-60
2022/12/03 07:28:05;;;;;;;;;;;;;;;34.68;nan;101949.56;5080558;28;19925;-59
2022/12/03 07:30:31;;;;;;;;;;;;;;;33.94;nan;101950.94;5081170;28;19935;-61
2022/12/03 07:32:57;;;;;;;;;;;;;;;34.21;nan;101947.78;5083493;28;19920;-60
2022/12/03 07:35:23;;;;;;;;;;;;;;;34.47;nan;101936.22;5082226;28;20433;-61
2022/12/03 07:37:49;;;;;;;;;;;;;;;34.64;nan;101942.28;5082793;28;19927;-60
2022/12/03 07:40:16;;;;;;;;;;;;;;;34.64;nan;101942.28;5074034;28;19963;-60
2022/12/03 07:42:42;;;;;;;;;;;;;;;34.67;nan;101941.50;5081655;28;19927;-63
2022/12/03 07:45:09;;;;;;;;;;;;;;;34.67;nan;101933.84;5082991;28;19920;-61
2022/12/03 07:47:35;;;;;;;;;;;;;;;34.57;nan;101930.97;5071934;28;19920;-60
2022/12/03 07:50:01;;;;;;;;;;;;;;;34.62;nan;101930.56;5072722;28;20023;-60
2022/12/03 07:52:27;;;;;;;;;;;;;;;34.66;nan;101932.22;5067031;28;19935;-60
2022/12/03 07:54:53;;;;;;;;;;;;;;;34.55;nan;101942.69;5070589;28;19935;-60
2022/12/03 07:57:20;;;;;;;;;;;;;;;34.59;nan;101939.84;5068856;28;20007;-60
2022/12/03 07:59:46;;;;;;;;;;;;;;;34.55;nan;101945.50;5072737;28;19920;-59
2022/12/03 08:02:12;;;;;;;;;;;;;;;34.60;nan;101949.94;5068638;28;19921;-60
2022/12/03 08:04:38;;;;;;;;;;;;;;;34.53;nan;101950.75;5062336;28;19920;-60
2022/12/03 08:07:05;;;;;;;;;;;;;;;34.53;nan;101959.22;5073123;28;19916;-62
2022/12/03 08:09:31;;;;;;;;;;;;;;;34.52;nan;101954.78;5061709;28;20079;-60
2022/12/03 08:12:00;;;;;;;;;;;;;;;34.42;nan;101953.53;5072821;28;19971;-59
2022/12/03 08:14:27;;;;;;;;;;;;;;;34.24;nan;101953.44;5072659;28;19924;-60
2022/12/03 08:16:53;;;;;;;;;;;;;;;34.32;nan;101951.47;5047059;28;20346;-60
2022/12/03 08:19:19;;;;;;;;;;;;;;;34.43;nan;101948.69;5057812;28;19942;-59
2022/12/03 08:21:45;;;;;;;;;;;;;;;34.13;nan;101946.97;5068959;28;19925;-60
2022/12/03 08:24:13;;;;;;;;;;;;;;;34.24;nan;101938.53;5060154;28;19951;-62
2022/12/03 08:26:40;;;;;;;;;;;;;;;34.24;nan;101938.53;5063956;28;20007;-59
2022/12/03 08:29:10;;;;;;;;;;;;;;;34.33;nan;101938.97;5072460;28;19966;-61
2022/12/03 08:31:37;;;;;;;;;;;;;;;34.35;nan;101928.13;5072191;28;19936;-62
2022/12/03 08:34:12;;;;;;;;;;;;;;;34.38;nan;101930.13;5041933;28;19921;-62
2022/12/03 08:36:39;;;;;;;;;;;;;;;34.51;nan;101928.56;5058249;28;19928;-62
2022/12/03 08:39:25;;;;;;;;;;;;;;;34.36;nan;101926.09;5054920;28;20015;-61
2022/12/03 08:44:41;;;;;;;;;;;;;;;34.46;nan;101931.75;5071514;28;19921;-61
2022/12/03 08:47:11;;;;;;;;;;;;;;;34.49;nan;101933.81;5060090;28;19913;-62
2022/12/03 08:49:39;;;;;;;;;;;;;;;34.36;nan;101921.25;5063612;28;20003;-62
2022/12/03 08:52:16;;;;;;;;;;;;;;;34.39;nan;101922.47;5058112;28;19916;-59
2022/12/03 08:54:47;;;;;;;;;;;;;;;34.45;nan;101923.69;5070769;28;19967;-61
2022/12/03 08:57:30;;;;;;;;;;;;;;;34.34;nan;101934.94;5066236;28;19920;-61
2022/12/03 08:59:59;;;;;;;;;;;;;;;34.32;nan;101928.09;5042453;28;20297;-62
2022/12/03 09:02:30;;;;;;;;;;;;;;;34.24;nan;101930.06;5063068;28;19921;-60
2022/12/03 09:04:56;;;;;;;;;;;;;;;34.31;nan;101934.94;5068589;28;19931;-62
2022/12/03 09:07:22;;;;;;;;;;;;;;;34.31;nan;101935.75;5075200;28;19927;-61
2022/12/03 09:09:49;;;;;;;;;;;;;;;34.33;nan;101938.16;5074794;28;19920;-61
2022/12/03 09:12:15;;;;;;;;;;;;;;;34.19;nan;101939.72;5075157;28;19916;-61
2022/12/03 09:14:41;;;;;;;;;;;;;;;34.27;nan;101926.44;5074846;28;20019;-58
2022/12/03 09:17:07;;;;;;;;;;;;;;;34.30;nan;101945.41;5072212;28;19916;-62
2022/12/03 09:19:34;;;;;;;;;;;;;;;34.22;nan;101946.59;5071515;28;19966;-60
2022/12/03 09:22:00;;;;;;;;;;;;;;;34.17;nan;101949.81;5057417;28;19921;-60
2022/12/03 09:24:26;;;;;;;;;;;;;;;34.21;nan;101953.44;5073400;28;20031;-58
2022/12/03 09:26:52;;;;;;;;;;;;;;;34.28;nan;101944.97;5061563;28;19932;-60
2022/12/03 09:29:19;;;;;;;;;;;;;;;34.30;nan;101944.63;5067599;28;19974;-60
2022/12/03 09:31:45;;;;;;;;;;;;;;;34.29;nan;101929.66;5066972;28;19936;-60
2022/12/03 09:34:12;;;;;;;;;;;;;;;34.24;nan;101927.25;5065261;28;20003;-59
2022/12/03 09:36:38;;;;;;;;;;;;;;;34.13;nan;101935.69;5059185;28;20003;-59
2022/12/03 09:39:05;;;;;;;;;;;;;;;34.18;nan;101937.31;5063895;28;19920;-60
2022/12/03 09:41:31;;;;;;;;;;;;;;;34.14;nan;101936.50;5067081;28;19924;-60
2022/12/03 09:43:58;;;;;;;;;;;;;;;34.01;nan;101938.84;5074342;28;20027;-59
2022/12/03 09:46:24;;;;;;;;;;;;;;;33.96;nan;101941.25;5073574;28;19916;-59
2022/12/03 09:48:50;;;;;;;;;;;;;;;34.13;nan;101943.34;5074141;28;19920;-59
2022/12/03 09:51:18;;;;;;;;;;;;;;;34.12;nan;101941.72;5061640;28;20011;-59
2022/12/03 09:53:45;;;;;;;;;;;;;;;33.86;nan;101946.44;5069896;28;19920;-59
2022/12/03 09:56:15;;;;;;;;;;;;;;;33.81;nan;101943.97;5085309;28;19920;-59
2022/12/03 09:58:42;;;;;;;;;;;;;;;33.88;nan;101943.22;5086641;28;19966;-59
2022/12/03 10:01:11;;;;;;;;;;;;;;;33.54;nan;101942.59;5085311;28;20405;-58
2022/12/03 10:03:41;;;;;;;;;;;;;;;33.81;nan;101934.69;5086839;28;19927;-60
2022/12/03 10:06:09;;;;;;;;;;;;;;;33.95;nan;101926.34;5085873;28;19916;-61
2022/12/03 10:08:36;;;;;;;;;;;;;;;33.94;nan;101925.53;5086758;28;20290;-59
2022/12/03 10:11:02;;;;;;;;;;;;;;;33.91;nan;101923.47;5085655;28;20382;-59
2022/12/03 10:13:29;;;;;;;;;;;;;;;33.89;nan;101925.91;5078091;28;19928;-60
2022/12/03 10:15:57;;;;;;;;;;;;;;;33.88;nan;101924.28;5076054;28;19917;-60
2022/12/03 10:18:25;;;;;;;;;;;;;;;33.78;nan;101929.84;5075517;28;19924;-60
2022/12/03 10:20:52;;;;;;;;;;;;;;;33.72;nan;101926.59;5075397;28;19916;-61
2022/12/03 10:23:22;;;;;;;;;;;;;;;33.70;nan;101917.72;5075681;28;19921;-62
2022/12/03 10:25:53;;;;;;;;;;;;;;;33.66;nan;101922.53;5075836;28;20338;-60
2022/12/03 10:28:42;;;;;;;;;;;;;;;33.63;nan;101918.50;5073550;28;19932;-60
2022/12/03 10:31:10;;;;;;;;;;;;;;;33.65;nan;101920.91;5074250;28;20017;-61
2022/12/03 10:33:36;;;;;;;;;;;;;;;33.65;nan;101918.91;5076636;28;19943;-60
2022/12/03 10:36:26;;;;;;;;;;;;;;;33.60;nan;101921.31;5075213;28;19947;-59
2022/12/03 10:39:24;;;;;;;;;;;;;;;33.55;nan;101930.91;5077033;28;20026;-60
2022/12/03 10:41:53;;;;;;;;;;;;;;;33.45;nan;101933.69;5055260;28;19971;-60
2022/12/03 10:44:22;;;;;;;;;;;;;;;33.42;nan;101929.66;5084782;28;19917;-60
2022/12/03 10:47:05;;;;;;;;;;;;;;;33.50;nan;101920.03;5086156;28;19970;-60
2022/12/03 10:49:31;;;;;;;;;;;;;;;33.50;nan;101914.38;5076977;28;19959;-60
2022/12/03 10:51:58;;;;;;;;;;;;;;;33.47;nan;101923.63;5087837;28;19925;-59
2022/12/03 10:54:25;;;;;;;;;;;;;;;33.47;nan;101928.47;5073120;28;19920;-59
2022/12/03 10:56:52;;;;;;;;;;;;;;;33.54;nan;101934.13;5068275;28;19928;-60
2022/12/03 10:59:20;;;;;;;;;;;;;;;33.47;nan;101934.09;5072972;28;20042;-60
2022/12/03 11:01:47;;;;;;;;;;;;;;;33.39;nan;101935.22;5072899;28;20092;-60
2022/12/03 11:04:21;;;;;;;;;;;;;;;33.40;nan;101931.25;5072946;28;19956;-60
2022/12/03 11:06:48;;;;;;;;;;;;;;;33.23;nan;101930.69;5072955;28;19925;-59
2022/12/03 11:09:23;;;;;;;;;;;;;;;33.33;nan;101941.25;5072881;28;20301;-59
2022/12/03 11:11:50;;;;;;;;;;;;;;;33.44;nan;101932.06;5057475;28;19927;-59
2022/12/03 11:14:34;;;;;;;;;;;;;;;33.51;nan;101937.75;5072935;28;19955;-59
2022/12/03 11:17:01;;;;;;;;;;;;;;;33.47;nan;101940.53;5072799;28;19927;-59
2022/12/03 11:19:36;;;;;;;;;;;;;;;33.43;nan;101927.63;5072112;28;19934;-60
2022/12/03 11:22:03;;;;;;;;;;;;;;;33.37;nan;101926.38;5072667;28;19932;-59
2022/12/03 11:24:33;;;;;;;;;;;;;;;33.30;nan;101941.19;5072893;28;19943;-59
2022/12/03 11:26:59;;;;;;;;;;;;;;;33.20;nan;101939.91;5067913;28;20029;-59
2022/12/03 11:29:48;;;;;;;;;;;;;;;32.82;nan;101940.38;5072643;28;20066;-59
2022/12/03 11:32:33;;;;;;;;;;;;;;;32.87;nan;101928.78;5064492;28;20011;-59
2022/12/03 11:35:00;;;;;;;;;;;;;;;32.99;nan;101934.09;5066547;28;19950;-59
2022/12/03 11:37:27;;;;;;;;;;;;;;;33.07;nan;101921.72;5070468;28;19916;-59
2022/12/03 11:40:00;;;;;;;;;;;;;;;33.08;nan;101923.31;5072519;28;19986;-59
2022/12/03 11:42:28;;;;;;;;;;;;;;;33.09;nan;101922.13;5062146;28;19921;-59
2022/12/03 11:45:09;;;;;;;;;;;;;;;33.11;nan;101931.00;5072326;28;19917;-61
2022/12/03 11:47:40;;;;;;;;;;;;;;;33.03;nan;101920.84;5072353;28;20051;-60
2022/12/03 11:50:22;;;;;;;;;;;;;;;33.19;nan;101915.75;5072621;28;20393;-59
2022/12/03 11:53:08;;;;;;;;;;;;;;;33.27;nan;101899.72;5071095;28;20537;-60
2022/12/03 11:55:47;;;;;;;;;;;;;;;33.24;nan;101901.31;5056910;28;19946;-61
2022/12/03 11:58:27;;;;;;;;;;;;;;;33.24;nan;101897.69;5070537;28;20350;-61
2022/12/03 12:00:55;;;;;;;;;;;;;;;33.32;nan;101902.16;5070814;28;19927;-61
2022/12/03 12:03:25;;;;;;;;;;;;;;;33.25;nan;101902.94;5071185;28;19916;-61
2022/12/03 12:06:02;;;;;;;;;;;;;;;33.26;nan;101912.19;5071150;28;19989;-61
2022/12/03 12:08:28;;;;;;;;;;;;;;;33.26;nan;101915.81;5071514;28;19928;-61
2022/12/03 12:10:54;;;;;;;;;;;;;;;33.35;nan;101912.66;5071953;28;19923;-60
2022/12/03 12:13:25;;;;;;;;;;;;;;;33.34;nan;101917.50;5072117;28;20378;-60
2022/12/03 12:15:51;;;;;;;;;;;;;;;33.39;nan;101919.13;5072193;28;19946;-60
2022/12/03 12:18:33;;;;;;;;;;;;;;;33.42;nan;101914.75;5072017;28;19916;-60
2022/12/03 12:21:17;;;;;;;;;;;;;;;33.50;nan;101907.94;5072238;28;20382;-61
2022/12/03 12:23:44;;;;;;;;;;;;;;;33.37;nan;101915.91;5056354;28;19971;-59
2022/12/03 12:26:10;;;;;;;;;;;;;;;33.33;nan;101917.91;5071691;28;19916;-59
2022/12/03 12:28:36;;;;;;;;;;;;;;;33.34;nan;101920.31;5071861;28;19921;-59
2022/12/03 12:31:08;;;;;;;;;;;;;;;33.39;nan;101921.94;5074609;28;20367;-57
2022/12/03 12:33:34;;;;;;;;;;;;;;;33.46;nan;101919.19;5076030;28;19921;-59
2022/12/03 12:36:06;;;;;;;;;;;;;;;33.43;nan;101920.00;5075999;28;20378;-57
2022/12/03 12:38:33;;;;;;;;;;;;;;;33.46;nan;101924.84;5075259;28;19928;-59
2022/12/03 12:41:03;;;;;;;;;;;;;;;33.43;nan;101920.00;5075990;28;19927;-58
2022/12/03 12:43:31;;;;;;;;;;;;;;;33.37;nan;101915.09;5075845;28;20374;-59
2022/12/03 12:46:07;;;;;;;;;;;;;;;33.50;nan;101919.22;5075807;28;19916;-59
2022/12/03 12:48:34;;;;;;;;;;;;;;;33.50;nan;101919.22;5075571;28;20376;-59
2022/12/03 12:51:16;;;;;;;;;;;;;;;33.24;nan;101926.66;5075641;28;20359;-58
2022/12/03 12:53:43;;;;;;;;;;;;;;;33.37;nan;101915.09;5075372;28;20014;-58
2022/12/03 12:56:19;;;;;;;;;;;;;;;33.49;nan;101921.22;5070934;28;19921;-58
2022/12/03 12:58:45;;;;;;;;;;;;;;;33.50;nan;101924.84;5075487;28;19924;-59
2022/12/03 13:01:18;;;;;;;;;;;;;;;33.54;nan;101920.03;5075526;28;19916;-58
2022/12/03 13:03:45;;;;;;;;;;;;;;;33.46;nan;101916.38;5043346;28;19920;-58
2022/12/03 13:06:14;;;;;;;;;;;;;;;33.37;nan;101920.72;5075320;28;19916;-58
2022/12/03 13:08:43;;;;;;;;;;;;;;;33.55;nan;101919.63;5075224;28;19920;-58
2022/12/03 13:11:21;;;;;;;;;;;;;;;33.56;nan;101914.81;5075222;28;19916;-60
2022/12/03 13:13:47;;;;;;;;;;;;;;;33.43;nan;101922.81;5059563;28;19920;-60
2022/12/03 13:16:25;;;;;;;;;;;;;;;33.44;nan;101921.59;5075184;28;19917;-59
2022/12/03 13:19:00;;;;;;;;;;;;;;;33.47;nan;101920.00;5069791;28;20590;-59
2022/12/03 13:21:33;;;;;;;;;;;;;;;33.50;nan;101924.84;5075125;28;19946;-59
2022/12/03 13:23:59;;;;;;;;;;;;;;;33.51;nan;101927.28;5075219;28;19921;-59
2022/12/03 13:26:28;;;;;;;;;;;;;;;33.47;nan;101934.09;5066554;28;19993;-59